createdAt,value
2019-04-16T00:00:11.897Z,17.03
2019-04-16T00:02:57.803Z,17.27
2019-04-16T00:05:45.096Z,17.50
2019-04-16T00:08:32.376Z,18.87
2019-04-16T00:11:19.650Z,17.80
2019-04-16T00:13:54.892Z,15.03
2019-04-16T00:16:22.842Z,16.23
2019-04-16T00:18:57.097Z,17.40
2019-04-16T00:21:45.623Z,16.50
2019-04-16T00:24:24.060Z,15.17
2019-04-16T00:26:58.047Z,17.93
2019-04-16T00:29:23.249Z,18.00
2019-04-16T00:32:16.716Z,17.87
2019-04-16T00:34:45.384Z,15.13
2019-04-16T00:37:13.389Z,13.70
2019-04-16T00:39:41.396Z,15.80
2019-04-16T00:42:09.408Z,15.53
2019-04-16T00:44:37.580Z,18.23
2019-04-16T00:47:05.393Z,13.73
2019-04-16T00:49:37.730Z,14.73
2019-04-16T00:52:06.923Z,13.50
2019-04-16T00:54:34.534Z,14.93
2019-04-16T00:57:02.555Z,14.03
2019-04-16T00:59:30.501Z,13.17
2019-04-16T01:01:58.558Z,14.70
2019-04-16T01:04:26.662Z,12.87
2019-04-16T01:06:54.705Z,12.60
2019-04-16T01:09:22.757Z,15.37
2019-04-16T01:11:50.779Z,14.13
2019-04-16T01:14:18.791Z,13.73
2019-04-16T01:16:47.136Z,13.17
2019-04-16T01:19:15.171Z,15.10
2019-04-16T01:21:44.809Z,12.87
2019-04-16T01:24:13.025Z,13.13
2019-04-16T01:26:40.927Z,14.90
2019-04-16T01:29:11.251Z,15.13
2019-04-16T01:32:01.503Z,15.50
2019-04-16T01:34:36.786Z,12.13
2019-04-16T01:37:18.258Z,13.67
2019-04-16T01:39:48.245Z,16.10
2019-04-16T01:42:16.370Z,11.90
2019-04-16T01:44:44.386Z,16.53
2019-04-16T01:47:12.378Z,11.73
2019-04-16T01:49:42.195Z,12.57
2019-04-16T01:52:10.628Z,11.23
2019-04-16T01:54:38.558Z,13.37
2019-04-16T01:57:06.550Z,16.53
2019-04-16T01:59:35.779Z,12.73
2019-04-16T02:02:04.401Z,12.53
2019-04-16T02:04:32.412Z,11.30
2019-04-16T02:07:00.366Z,12.03
2019-04-16T02:09:28.307Z,12.90
2019-04-16T02:11:56.370Z,15.63
2019-04-16T02:14:24.513Z,13.70
2019-04-16T02:16:55.669Z,12.87
2019-04-16T02:19:22.213Z,11.77
2019-04-16T02:21:50.260Z,15.27
2019-04-16T02:24:18.879Z,13.93
2019-04-16T02:26:47.362Z,15.60
2019-04-16T02:29:15.389Z,15.10
2019-04-16T02:31:43.291Z,13.63
2019-04-16T02:34:11.371Z,16.10
2019-04-16T02:36:39.530Z,13.90
2019-04-16T02:39:08.057Z,12.77
2019-04-16T02:41:36.183Z,13.23
2019-04-16T02:44:04.700Z,14.73
2019-04-16T02:46:32.918Z,16.70
2019-04-16T02:49:00.952Z,14.80
2019-04-16T02:51:39.543Z,16.80
2019-04-16T02:54:42.046Z,14.83
2019-04-16T02:57:28.388Z,14.47
2019-04-16T02:59:57.450Z,11.97
2019-04-16T03:02:41.936Z,12.93
2019-04-16T03:05:15.837Z,15.60
2019-04-16T03:07:43.747Z,13.77
2019-04-16T03:10:13.260Z,16.13
2019-04-16T03:12:41.510Z,13.43
2019-04-16T03:15:09.901Z,15.93
2019-04-16T03:17:42.760Z,15.50
2019-04-16T03:20:12.107Z,13.10
2019-04-16T03:22:40.053Z,14.90
2019-04-16T03:25:12.275Z,17.33
2019-04-16T03:27:38.142Z,17.20
2019-04-16T03:30:06.735Z,14.73
2019-04-16T03:32:46.890Z,15.97
2019-04-16T03:35:14.762Z,12.37
2019-04-16T03:37:42.689Z,13.37
2019-04-16T03:40:17.063Z,12.20
2019-04-16T03:42:40.371Z,12.27
2019-04-16T03:45:09.859Z,12.83
2019-04-16T03:47:38.187Z,14.53
2019-04-16T03:50:06.415Z,16.63
2019-04-16T03:52:37.489Z,15.83
2019-04-16T03:55:05.810Z,12.20
2019-04-16T03:57:33.915Z,12.37
2019-04-16T04:00:01.887Z,11.93
2019-04-16T04:02:30.023Z,11.10
2019-04-16T04:05:01.529Z,13.03
2019-04-16T04:07:27.735Z,13.47
2019-04-16T04:09:58.678Z,15.20
2019-04-16T04:12:27.745Z,12.80
2019-04-16T04:14:55.445Z,13.23
2019-04-16T04:17:23.493Z,12.60
2019-04-16T04:19:51.604Z,12.73
2019-04-16T04:22:19.752Z,14.67
2019-04-16T04:24:49.365Z,13.20
2019-04-16T04:27:19.364Z,13.43
2019-04-16T04:29:47.358Z,15.30
2019-04-16T04:32:15.489Z,14.10
2019-04-16T04:34:45.415Z,16.70
2019-04-16T04:37:13.206Z,15.77
2019-04-16T04:39:43.688Z,14.30
2019-04-16T04:42:10.973Z,17.30
2019-04-16T04:44:39.053Z,16.87
2019-04-16T04:47:07.786Z,14.60
2019-04-16T04:49:35.998Z,17.73
2019-04-16T04:52:04.002Z,21.43
2019-04-16T04:54:33.077Z,14.67
2019-04-16T04:57:00.941Z,15.23
2019-04-16T04:59:29.031Z,15.37
2019-04-16T05:01:57.030Z,19.30
2019-04-16T05:04:46.169Z,18.47
2019-04-16T05:07:14.357Z,18.03
2019-04-16T05:09:42.266Z,17.93
2019-04-16T05:12:10.157Z,22.73
2019-04-16T05:14:51.348Z,25.60
2019-04-16T05:17:19.182Z,22.43
2019-04-16T05:19:47.249Z,22.00
2019-04-16T05:22:15.205Z,18.47
2019-04-16T05:24:43.088Z,23.23
2019-04-16T05:27:10.971Z,22.23
2019-04-16T05:29:38.987Z,33.23
2019-04-16T05:32:06.904Z,24.17
2019-04-16T05:34:37.517Z,26.77
2019-04-16T05:37:04.624Z,25.37
2019-04-16T05:39:32.537Z,28.37
2019-04-16T05:42:00.622Z,25.37
2019-04-16T05:44:33.171Z,25.23
2019-04-16T05:46:58.485Z,29.18
2019-04-16T05:49:26.540Z,26.33
2019-04-16T05:51:54.603Z,21.80
2019-04-16T05:54:41.475Z,22.83
2019-04-16T05:57:13.282Z,18.27
2019-04-16T05:59:41.265Z,20.27
2019-04-16T06:02:23.021Z,21.30
2019-04-16T06:04:55.625Z,17.47
2019-04-16T06:07:20.633Z,19.67
2019-04-16T06:09:48.617Z,19.93
2019-04-16T06:12:16.630Z,20.70
2019-04-16T06:15:03.090Z,19.47
2019-04-16T06:17:57.707Z,18.63
2019-04-16T06:20:31.988Z,18.67
2019-04-16T06:23:09.713Z,12.60
2019-04-16T06:25:57.030Z,16.50
2019-04-16T06:28:37.516Z,13.83
2019-04-16T06:31:21.659Z,14.93
2019-04-16T06:34:08.950Z,15.73
2019-04-16T06:36:49.737Z,15.10
2019-04-16T06:39:39.913Z,15.10
2019-04-16T06:42:12.587Z,15.97
2019-04-16T06:45:01.711Z,14.13
2019-04-16T06:47:53.399Z,15.60
2019-04-16T06:50:46.022Z,15.57
2019-04-16T06:53:33.465Z,17.77
2019-04-16T06:56:13.425Z,12.50
2019-04-16T06:59:03.767Z,15.80
2019-04-16T07:01:46.196Z,15.57
2019-04-16T07:04:29.493Z,16.37
2019-04-16T07:07:12.798Z,13.93
2019-04-16T07:10:00.117Z,14.93
2019-04-16T07:12:31.271Z,13.33
2019-04-16T07:14:59.294Z,17.47
2019-04-16T07:17:32.933Z,18.67
2019-04-16T07:19:57.054Z,19.57
2019-04-16T07:22:25.033Z,18.87
2019-04-16T07:24:56.447Z,16.03
2019-04-16T07:27:24.941Z,22.17
2019-04-16T07:29:57.742Z,15.07
2019-04-16T07:32:40.264Z,13.00
2019-04-16T07:35:27.603Z,13.10
2019-04-16T07:38:11.366Z,15.43
2019-04-16T07:40:56.094Z,19.10
2019-04-16T07:43:52.565Z,16.00
2019-04-16T07:46:38.870Z,13.63
2019-04-16T07:49:28.974Z,18.47
2019-04-16T07:52:27.909Z,12.20
2019-04-16T07:55:09.173Z,12.33
2019-04-16T07:57:37.126Z,13.17
2019-04-16T08:00:08.653Z,14.30
2019-04-16T08:02:35.551Z,13.83
2019-04-16T08:05:08.688Z,10.77
2019-04-16T08:07:35.166Z,13.63
2019-04-16T08:10:03.517Z,12.33
2019-04-16T08:12:31.634Z,12.67
2019-04-16T08:15:12.547Z,12.07
2019-04-16T08:17:29.701Z,13.03
2019-04-16T08:19:57.657Z,13.93
2019-04-16T08:22:25.685Z,16.97
2019-04-16T08:25:02.465Z,10.60
2019-04-16T08:27:27.390Z,12.13
2019-04-16T08:29:55.376Z,13.30
2019-04-16T08:32:25.751Z,12.87
2019-04-16T08:34:53.280Z,11.97
2019-04-16T08:37:21.234Z,9.97
2019-04-16T08:39:49.245Z,10.63
2019-04-16T08:42:17.123Z,12.83
2019-04-16T08:44:45.137Z,11.07
2019-04-16T08:47:13.229Z,10.17
2019-04-16T08:49:41.271Z,13.20
2019-04-16T08:52:10.222Z,10.10
2019-04-16T08:54:38.911Z,12.10
2019-04-16T08:57:06.815Z,11.00
2019-04-16T08:59:34.784Z,12.87
2019-04-16T09:02:02.918Z,9.33
2019-04-16T09:04:33.993Z,9.80
2019-04-16T09:07:11.365Z,12.10
2019-04-16T09:09:40.186Z,9.77
2019-04-16T09:12:09.677Z,9.47
2019-04-16T09:14:44.715Z,12.70
2019-04-16T09:17:15.590Z,11.50
2019-04-16T09:19:48.044Z,12.23
2019-04-16T09:22:17.051Z,14.00
2019-04-16T09:24:54.799Z,12.40
2019-04-16T09:27:34.508Z,12.37
2019-04-16T09:30:24.675Z,12.23
2019-04-16T09:33:14.613Z,13.00
2019-04-16T09:36:00.827Z,11.73
2019-04-16T09:38:45.103Z,11.67
2019-04-16T09:41:19.883Z,12.60
2019-04-16T09:43:50.102Z,12.83
2019-04-16T09:46:25.543Z,9.80
2019-04-16T09:48:50.030Z,9.57
2019-04-16T09:51:20.526Z,10.37
2019-04-16T09:53:47.824Z,9.73
2019-04-16T09:56:33.886Z,9.57
2019-04-16T09:59:22.705Z,11.63
2019-04-16T10:01:54.757Z,9.10
2019-04-16T10:04:22.586Z,11.60
2019-04-16T10:06:50.671Z,10.33
2019-04-16T10:09:22.346Z,11.60
2019-04-16T10:11:50.206Z,9.90
2019-04-16T10:14:18.196Z,12.30
2019-04-16T10:16:46.211Z,13.30
2019-04-16T10:19:14.095Z,11.70
2019-04-16T10:21:42.029Z,9.83
2019-04-16T10:24:47.442Z,10.63
2019-04-16T10:27:23.269Z,10.77
2019-04-16T10:29:51.383Z,10.63
2019-04-16T10:32:19.418Z,9.90
2019-04-16T10:34:47.396Z,10.90
2019-04-16T10:37:15.437Z,11.80
2019-04-16T10:39:54.915Z,12.40
2019-04-16T10:42:54.123Z,10.90
2019-04-16T10:45:40.395Z,13.20
2019-04-16T10:48:30.490Z,11.80
2019-04-16T10:51:20.670Z,9.13
2019-04-16T10:53:55.912Z,9.57
2019-04-16T10:56:41.850Z,9.30
2019-04-16T10:59:31.995Z,9.93
2019-04-16T11:02:22.380Z,10.97
2019-04-16T11:05:06.658Z,9.53
2019-04-16T11:07:34.947Z,10.27
2019-04-16T11:10:04.414Z,10.20
2019-04-16T11:12:32.336Z,10.17
2019-04-16T11:15:00.232Z,14.40
2019-04-16T11:17:28.711Z,12.70
2019-04-16T11:19:59.927Z,13.37
2019-04-16T11:22:26.755Z,9.97
2019-04-16T11:24:54.576Z,10.98
2019-04-16T11:27:22.549Z,12.70
2019-04-16T11:29:50.516Z,9.40
2019-04-16T11:32:20.845Z,10.28
2019-04-16T11:34:48.775Z,10.05
2019-04-16T11:37:16.658Z,8.60
2019-04-16T11:39:44.623Z,14.98
2019-04-16T11:42:12.658Z,11.22
2019-04-16T11:44:40.713Z,11.50
2019-04-16T11:47:08.733Z,11.30
2019-04-16T11:49:36.670Z,10.50
2019-04-16T11:52:04.466Z,12.35
2019-04-16T11:54:32.499Z,9.28
2019-04-16T11:57:00.483Z,9.63
2019-04-16T11:59:28.269Z,9.10
2019-04-16T12:02:04.273Z,9.23
2019-04-16T12:04:58.860Z,12.30
2019-04-16T12:07:31.735Z,10.82
2019-04-16T12:10:34.121Z,13.58
2019-04-16T12:13:21.394Z,8.88
2019-04-16T12:16:17.765Z,9.93
2019-04-16T12:18:57.640Z,8.43
2019-04-16T12:21:36.123Z,8.88
2019-04-16T12:24:18.425Z,9.68
2019-04-16T12:27:03.957Z,9.13
2019-04-16T12:29:43.210Z,11.00
2019-04-16T12:32:42.683Z,10.30
2019-04-16T12:35:22.185Z,9.70
2019-04-16T12:38:14.718Z,10.23
2019-04-16T12:41:13.168Z,10.25
2019-04-16T12:43:55.178Z,10.13
2019-04-16T12:46:44.943Z,11.33
2019-04-16T12:49:50.620Z,12.37
2019-04-16T12:52:36.580Z,9.57
2019-04-16T12:55:31.721Z,11.53
2019-04-16T12:58:25.485Z,12.37
2019-04-16T13:01:11.378Z,11.57
2019-04-16T13:03:46.571Z,11.63
2019-04-16T13:06:26.151Z,11.20
2019-04-16T13:09:10.741Z,10.13
2019-04-16T13:11:45.153Z,9.53
2019-04-16T13:14:30.857Z,13.03
2019-04-16T13:17:15.150Z,10.97
2019-04-16T13:20:09.994Z,12.37
2019-04-16T13:22:42.428Z,11.03
2019-04-16T13:25:30.442Z,12.43
2019-04-16T13:27:58.340Z,10.60
2019-04-16T13:30:26.203Z,11.60
2019-04-16T13:32:54.149Z,12.60
2019-04-16T13:35:22.038Z,14.73
2019-04-16T13:37:49.898Z,12.30
2019-04-16T13:40:17.915Z,12.83
2019-04-16T13:42:45.881Z,13.50
2019-04-16T13:45:34.017Z,12.27
2019-04-16T13:50:59.757Z,14.33
2019-04-16T13:53:42.464Z,14.67
2019-04-16T13:56:22.137Z,11.67
2019-04-16T13:59:04.354Z,12.13
2019-04-16T14:01:35.884Z,13.27
2019-04-16T14:04:05.689Z,16.77
2019-04-16T14:06:33.749Z,12.87
2019-04-16T14:09:01.718Z,13.27
2019-04-16T14:11:29.752Z,12.53
2019-04-16T14:13:57.614Z,15.43
2019-04-16T14:16:25.805Z,13.93
2019-04-16T14:18:53.759Z,14.20
2019-04-16T14:21:21.666Z,16.03
2019-04-16T14:23:49.639Z,13.00
2019-04-16T14:26:17.682Z,14.63
2019-04-16T14:28:52.276Z,15.50
2019-04-16T14:31:16.938Z,12.33
2019-04-16T14:33:56.234Z,14.93
2019-04-16T14:36:24.119Z,14.43
2019-04-16T14:38:55.342Z,17.57
2019-04-16T14:41:22.991Z,15.50
2019-04-16T14:43:55.502Z,14.73
2019-04-16T14:46:28.256Z,12.50
2019-04-16T14:48:53.120Z,11.67
2019-04-16T14:51:20.834Z,13.47
2019-04-16T14:53:57.938Z,15.03
2019-04-16T14:56:36.016Z,16.40
2019-04-16T14:59:33.266Z,14.43
2019-04-16T15:02:07.888Z,14.13
2019-04-16T15:04:58.275Z,15.60
2019-04-16T15:07:54.974Z,17.60
2019-04-16T15:10:48.473Z,12.93
2019-04-16T15:13:32.035Z,13.90
2019-04-16T15:16:22.179Z,12.63
2019-04-16T15:19:08.111Z,15.60
2019-04-16T15:21:53.883Z,15.60
2019-04-16T15:24:44.069Z,12.53
2019-04-16T15:27:37.457Z,17.13
2019-04-16T15:30:32.843Z,15.03
2019-04-16T15:33:18.732Z,32.83
2019-04-16T15:35:51.614Z,15.27
2019-04-16T15:38:32.140Z,19.63
2019-04-16T15:41:17.492Z,18.07
2019-04-16T15:44:03.359Z,14.07
2019-04-16T15:46:56.987Z,13.30
2019-04-16T15:49:43.831Z,19.23
2019-04-16T15:52:46.740Z,13.40
2019-04-16T15:55:37.188Z,19.87
2019-04-16T15:58:24.478Z,12.13
2019-04-16T16:01:14.462Z,12.53
2019-04-16T16:04:01.842Z,13.70
2019-04-16T16:06:58.409Z,18.23
2019-04-16T16:09:48.752Z,24.10
2019-04-16T16:12:24.743Z,22.03
2019-04-16T16:14:52.794Z,14.83
2019-04-16T16:17:22.546Z,16.67
2019-04-16T16:19:51.268Z,18.53
2019-04-16T16:22:19.690Z,22.63
2019-04-16T16:24:47.723Z,15.63
2019-04-16T16:27:15.579Z,21.47
2019-04-16T16:29:43.535Z,15.70
2019-04-16T16:32:11.643Z,15.27
2019-04-16T16:34:39.513Z,19.57
2019-04-16T16:37:07.540Z,17.10
2019-04-16T16:39:35.421Z,15.90
2019-04-16T16:42:03.602Z,14.57
2019-04-16T16:44:31.522Z,16.23
2019-04-16T16:47:17.502Z,17.13
2019-04-16T16:49:45.690Z,17.03
2019-04-16T16:52:36.206Z,19.07
2019-04-16T16:55:06.630Z,21.87
2019-04-16T16:57:37.937Z,22.33
2019-04-16T17:00:25.031Z,20.17
2019-04-16T17:03:08.393Z,18.27
2019-04-16T17:05:36.787Z,22.73
2019-04-16T17:08:04.815Z,19.43
2019-04-16T17:10:32.671Z,21.10
2019-04-16T17:13:00.585Z,17.70
2019-04-16T17:15:28.499Z,19.03
2019-04-16T17:17:57.386Z,21.63
2019-04-16T17:20:25.337Z,19.00
2019-04-16T17:22:53.693Z,21.23
2019-04-16T17:25:35.498Z,21.63
2019-04-16T17:27:51.989Z,26.17
2019-04-16T17:30:20.105Z,25.43
2019-04-16T17:32:48.061Z,22.23
2019-04-16T17:35:16.164Z,18.60
2019-04-16T17:37:44.143Z,21.40
2019-04-16T17:40:24.043Z,22.07
2019-04-16T17:43:02.184Z,24.40
2019-04-16T17:45:58.659Z,23.80
2019-04-16T17:48:39.607Z,24.47
2019-04-16T17:51:26.862Z,23.13
2019-04-16T17:54:16.833Z,20.07
2019-04-16T17:57:02.497Z,19.90
2019-04-16T17:59:55.823Z,26.13
2019-04-16T18:03:03.010Z,25.43
2019-04-16T18:05:33.964Z,19.17
2019-04-16T18:08:30.997Z,24.57
2019-04-16T18:11:10.904Z,23.43
2019-04-16T18:13:49.313Z,25.43
2019-04-16T18:16:24.654Z,25.23
2019-04-16T18:19:01.682Z,23.60
2019-04-16T18:21:57.744Z,27.63
2019-04-16T18:24:43.772Z,28.30
2019-04-16T18:27:29.926Z,27.30
2019-04-16T18:30:17.453Z,28.77
2019-04-16T18:33:07.640Z,24.67
2019-04-16T18:35:40.664Z,25.57
2019-04-16T18:38:36.637Z,26.67
2019-04-16T18:41:27.842Z,25.77
2019-04-16T18:44:13.951Z,22.00
2019-04-16T18:46:52.991Z,24.00
2019-04-16T18:49:21.937Z,24.97
2019-04-16T18:51:49.791Z,26.97
2019-04-16T18:54:17.734Z,23.43
2019-04-16T18:56:45.640Z,26.70
2019-04-16T18:59:13.585Z,26.43
2019-04-16T19:01:42.545Z,27.37
2019-04-16T19:04:10.578Z,32.43
2019-04-16T19:06:38.447Z,30.40
2019-04-16T19:09:06.763Z,32.83
2019-04-16T19:11:34.686Z,35.70
2019-04-16T19:14:02.662Z,29.23
2019-04-16T19:16:30.478Z,29.60
2019-04-16T19:18:58.387Z,35.63
2019-04-16T19:21:26.473Z,35.53
2019-04-16T19:23:54.436Z,38.43
2019-04-16T19:26:40.726Z,35.33
2019-04-16T19:29:13.255Z,35.87
2019-04-16T19:31:38.515Z,33.23
2019-04-16T19:34:10.197Z,31.20
2019-04-16T19:36:36.426Z,33.13
2019-04-16T19:39:06.942Z,38.50
2019-04-16T19:41:35.820Z,36.57
2019-04-16T19:44:07.584Z,37.10
2019-04-16T19:46:35.824Z,33.00
2019-04-16T19:49:03.941Z,35.47
2019-04-16T19:51:31.972Z,36.40
2019-04-16T19:54:00.374Z,32.87
2019-04-16T19:56:28.650Z,34.13
2019-04-16T19:58:56.847Z,37.63
2019-04-16T20:01:27.562Z,28.73
2019-04-16T20:03:55.684Z,28.33
2019-04-16T20:06:26.194Z,23.63
2019-04-16T20:08:53.864Z,24.13
2019-04-16T20:11:23.014Z,25.87
2019-04-16T20:13:51.514Z,26.17
2019-04-16T20:16:24.479Z,26.93
2019-04-16T20:18:54.297Z,25.67
2019-04-16T20:21:24.807Z,28.10
2019-04-16T20:23:55.571Z,28.80
2019-04-16T20:26:34.543Z,29.50
2019-04-16T20:29:05.323Z,30.37
2019-04-16T20:31:34.325Z,25.20
2019-04-16T20:34:02.509Z,26.23
2019-04-16T20:36:30.754Z,24.17
2019-04-16T20:38:58.830Z,21.40
2019-04-16T20:41:27.135Z,25.53
2019-04-16T20:43:55.057Z,21.77
2019-04-16T20:46:23.176Z,22.73
2019-04-16T20:49:05.667Z,26.87
2019-04-16T20:51:26.203Z,23.93
2019-04-16T20:53:50.712Z,27.57
2019-04-16T20:56:20.482Z,30.90
2019-04-16T20:58:48.614Z,26.77
2019-04-16T21:01:32.207Z,30.40
2019-04-16T21:04:03.806Z,29.50
2019-04-16T21:06:25.876Z,28.17
2019-04-16T21:08:57.048Z,29.17
2019-04-16T21:11:23.816Z,25.90
2019-04-16T21:13:51.990Z,30.43
2019-04-16T21:16:19.958Z,24.80
2019-04-16T21:18:48.062Z,22.93
2019-04-16T21:21:16.133Z,30.97
2019-04-16T21:23:45.550Z,29.70
2019-04-16T21:26:13.308Z,26.53
2019-04-16T21:29:02.201Z,24.37
2019-04-16T21:31:32.267Z,33.80
2019-04-16T21:34:24.290Z,25.10
2019-04-16T21:37:10.571Z,28.10
2019-04-16T21:39:58.098Z,22.57
2019-04-16T21:42:26.109Z,23.23
2019-04-16T21:45:13.666Z,22.60
2019-04-16T21:47:43.098Z,23.20
2019-04-16T21:50:16.029Z,18.47
2019-04-16T21:52:41.594Z,20.63
2019-04-16T21:55:09.492Z,24.50
2019-04-16T21:57:37.412Z,21.33
2019-04-16T22:00:08.504Z,16.70
2019-04-16T22:02:38.775Z,16.83
2019-04-16T22:05:08.093Z,17.80
2019-04-16T22:07:35.875Z,16.90
2019-04-16T22:10:04.030Z,19.07
2019-04-16T22:12:31.987Z,17.27
2019-04-16T22:14:59.870Z,19.03
2019-04-16T22:17:27.878Z,17.50
2019-04-16T22:20:01.512Z,14.97
2019-04-16T22:22:28.081Z,15.27
2019-04-16T22:24:56.445Z,15.07
2019-04-16T22:27:24.201Z,17.30
2019-04-16T22:29:52.053Z,15.30
2019-04-16T22:32:19.904Z,16.27
2019-04-16T22:34:47.785Z,15.77
2019-04-16T22:37:15.662Z,14.20
2019-04-16T22:39:51.213Z,15.00
2019-04-16T22:42:30.622Z,14.97
2019-04-16T22:45:16.885Z,15.50
2019-04-16T22:47:45.558Z,15.63
2019-04-16T22:50:16.979Z,13.17
2019-04-16T22:52:44.975Z,13.37
2019-04-16T22:55:13.135Z,18.37
2019-04-16T22:57:41.121Z,13.27
2019-04-16T23:00:18.953Z,12.77
2019-04-16T23:02:48.277Z,11.77
2019-04-16T23:05:16.363Z,11.63
2019-04-16T23:07:44.298Z,12.30
2019-04-16T23:10:12.310Z,14.27
2019-04-16T23:12:40.176Z,12.53
2019-04-16T23:15:09.885Z,13.93
2019-04-16T23:17:37.734Z,15.03
2019-04-16T23:20:06.026Z,11.93
2019-04-16T23:22:34.022Z,12.40
2019-04-16T23:25:02.051Z,11.07
2019-04-16T23:27:29.914Z,11.07
2019-04-16T23:29:58.601Z,11.03
2019-04-16T23:32:28.663Z,10.80
2019-04-16T23:34:56.195Z,11.60
2019-04-16T23:37:24.159Z,11.37
2019-04-16T23:39:52.153Z,9.90
2019-04-16T23:42:20.198Z,10.87
2019-04-16T23:45:06.141Z,10.20
2019-04-16T23:47:51.670Z,10.80
2019-04-16T23:50:45.030Z,11.60
2019-04-16T23:53:16.878Z,10.23
2019-04-16T23:56:04.234Z,11.00
2019-04-16T23:58:39.071Z,11.10
